createdAt,value
2022-10-29T00:00:50.380Z,17.79
2022-10-29T00:03:16.985Z,17.80
2022-10-29T00:05:43.465Z,17.69
2022-10-29T00:08:10.148Z,17.70
2022-10-29T00:10:36.550Z,17.75
2022-10-29T00:13:03.585Z,17.86
2022-10-29T00:15:30.104Z,17.76
2022-10-29T00:17:56.748Z,17.86
2022-10-29T00:20:23.911Z,17.87
2022-10-29T00:22:53.967Z,17.88
2022-10-29T00:25:20.751Z,17.87
2022-10-29T00:27:47.135Z,17.80
2022-10-29T00:30:13.776Z,17.87
2022-10-29T00:32:40.162Z,17.87
2022-10-29T00:35:06.711Z,17.83
2022-10-29T00:37:33.126Z,17.76
2022-10-29T00:39:59.523Z,17.82
2022-10-29T00:42:25.975Z,17.70
2022-10-29T00:44:52.375Z,17.82
2022-10-29T00:47:25.806Z,17.83
2022-10-29T00:50:03.212Z,17.88
2022-10-29T00:52:32.584Z,17.79
2022-10-29T00:55:02.810Z,17.79
2022-10-29T00:57:35.781Z,17.83
2022-10-29T01:00:02.258Z,17.84
2022-10-29T01:02:31.632Z,17.89
2022-10-29T01:04:58.301Z,17.84
2022-10-29T01:07:24.729Z,17.85
2022-10-29T01:09:51.196Z,17.89
2022-10-29T01:12:42.966Z,17.92
2022-10-29T01:15:36.737Z,17.90
2022-10-29T01:18:24.613Z,17.78
2022-10-29T01:21:36.974Z,17.80
2022-10-29T01:24:35.719Z,17.80
2022-10-29T01:27:40.156Z,17.87
2022-10-29T01:30:23.365Z,17.89
2022-10-29T01:33:02.999Z,17.83
2022-10-29T01:36:10.543Z,17.79
2022-10-29T01:38:47.864Z,17.74
2022-10-29T01:41:29.927Z,17.71
2022-10-29T01:44:07.230Z,17.72
2022-10-29T01:46:41.549Z,17.70
2022-10-29T01:49:17.799Z,17.61
2022-10-29T01:51:46.182Z,17.60
2022-10-29T01:54:12.631Z,17.62
2022-10-29T01:56:39.155Z,17.67
2022-10-29T01:59:18.240Z,17.56
2022-10-29T02:02:07.032Z,17.51
2022-10-29T02:04:42.491Z,17.48
2022-10-29T02:07:20.503Z,17.49
2022-10-29T02:09:59.001Z,17.40
2022-10-29T02:12:29.464Z,17.45
2022-10-29T02:15:04.380Z,17.34
2022-10-29T02:17:33.198Z,17.40
2022-10-29T02:20:03.986Z,17.27
2022-10-29T02:22:30.394Z,17.31
2022-10-29T02:24:57.051Z,17.26
2022-10-29T02:27:23.522Z,17.25
2022-10-29T02:29:49.935Z,17.22
2022-10-29T02:32:16.355Z,17.24
2022-10-29T02:34:42.770Z,17.17
2022-10-29T02:37:09.180Z,17.25
2022-10-29T02:39:35.603Z,17.13
2022-10-29T02:42:01.986Z,17.20
2022-10-29T02:44:28.386Z,17.19
2022-10-29T02:46:54.753Z,17.21
2022-10-29T02:49:21.152Z,17.06
2022-10-29T02:51:47.536Z,17.13
2022-10-29T02:54:13.901Z,17.19
2022-10-29T02:56:40.285Z,17.13
2022-10-29T02:59:09.257Z,17.14
2022-10-29T03:01:38.225Z,17.17
2022-10-29T03:04:04.852Z,17.13
2022-10-29T03:06:31.302Z,17.19
2022-10-29T03:08:57.680Z,17.11
2022-10-29T03:11:24.060Z,17.10
2022-10-29T03:13:50.450Z,17.05
2022-10-29T03:16:16.869Z,17.08
2022-10-29T03:18:43.265Z,17.02
2022-10-29T03:21:09.644Z,17.01
2022-10-29T03:23:36.032Z,16.99
2022-10-29T03:26:02.766Z,16.95
2022-10-29T03:28:30.598Z,16.96
2022-10-29T03:30:58.101Z,16.97
2022-10-29T03:33:28.726Z,16.88
2022-10-29T03:35:57.041Z,16.86
2022-10-29T03:38:23.735Z,16.76
2022-10-29T03:40:50.344Z,16.68
2022-10-29T03:43:16.729Z,16.72
2022-10-29T03:45:43.122Z,16.62
2022-10-29T03:48:09.517Z,16.66
2022-10-29T03:50:35.916Z,16.61
2022-10-29T03:53:02.308Z,16.59
2022-10-29T03:55:29.157Z,16.58
2022-10-29T03:57:56.231Z,16.42
2022-10-29T04:00:22.925Z,16.45
2022-10-29T04:02:49.374Z,16.36
2022-10-29T04:05:15.841Z,16.29
2022-10-29T04:07:42.237Z,16.30
2022-10-29T04:10:08.936Z,16.24
2022-10-29T04:12:35.327Z,16.20
2022-10-29T04:15:01.735Z,16.26
2022-10-29T04:17:28.200Z,16.16
2022-10-29T04:19:54.593Z,16.06
2022-10-29T04:30:41.818Z,15.95
2022-10-29T04:33:08.219Z,15.88
2022-10-29T04:35:34.628Z,15.94
2022-10-29T04:38:08.365Z,16.06
2022-10-29T04:40:34.767Z,16.01
2022-10-29T04:43:01.193Z,16.05
2022-10-29T04:45:27.608Z,16.15
2022-10-29T04:48:01.219Z,15.99
2022-10-29T04:50:28.296Z,15.80
2022-10-29T04:53:01.885Z,15.86
2022-10-29T04:55:29.062Z,15.81
2022-10-29T04:57:55.995Z,15.83
2022-10-29T05:00:23.503Z,15.84
2022-10-29T05:02:51.525Z,15.92
2022-10-29T05:05:19.657Z,15.91
2022-10-29T05:07:46.850Z,15.92
2022-10-29T05:10:13.901Z,15.92
2022-10-29T05:12:40.576Z,15.93
2022-10-29T05:15:07.721Z,16.00
2022-10-29T05:17:40.882Z,15.95
2022-10-29T05:20:07.648Z,15.86
2022-10-29T05:22:34.043Z,15.83
2022-10-29T05:25:00.452Z,15.73
2022-10-29T05:27:26.894Z,15.72
2022-10-29T05:29:53.934Z,15.67
2022-10-29T05:32:20.319Z,15.57
2022-10-29T05:34:46.708Z,15.56
2022-10-29T05:37:13.095Z,15.53
2022-10-29T05:39:39.481Z,15.47
2022-10-29T05:42:06.401Z,15.47
2022-10-29T05:44:32.898Z,15.42
2022-10-29T05:46:59.336Z,15.34
2022-10-29T05:49:25.726Z,15.28
2022-10-29T05:51:53.044Z,15.17
2022-10-29T05:54:19.430Z,15.22
2022-10-29T05:56:45.816Z,15.28
2022-10-29T05:59:12.188Z,15.28
2022-10-29T06:01:38.687Z,15.31
2022-10-29T06:04:05.107Z,15.36
2022-10-29T06:06:31.562Z,15.39
2022-10-29T06:08:57.996Z,15.35
2022-10-29T06:11:24.402Z,15.41
2022-10-29T06:13:54.331Z,15.51
2022-10-29T06:16:20.726Z,15.53
2022-10-29T06:18:47.189Z,15.46
2022-10-29T06:21:13.618Z,15.47
2022-10-29T06:23:39.990Z,15.52
2022-10-29T06:26:06.403Z,15.43
2022-10-29T06:28:34.793Z,15.35
2022-10-29T06:31:01.482Z,15.39
2022-10-29T06:33:27.886Z,15.36
2022-10-29T06:35:58.569Z,15.45
2022-10-29T06:38:25.016Z,15.46
2022-10-29T06:40:53.673Z,15.49
2022-10-29T06:43:20.699Z,15.48
2022-10-29T06:45:49.370Z,15.46
2022-10-29T06:48:19.138Z,15.47
2022-10-29T06:50:48.335Z,15.55
2022-10-29T06:53:15.221Z,15.59
2022-10-29T06:55:41.686Z,15.70
2022-10-29T06:58:13.106Z,15.69
2022-10-29T07:00:41.090Z,15.91
2022-10-29T07:03:11.756Z,15.85
2022-10-29T07:05:38.137Z,15.90
2022-10-29T07:08:04.616Z,15.95
2022-10-29T07:10:32.691Z,15.99
2022-10-29T07:13:00.104Z,16.01
2022-10-29T07:15:27.871Z,16.17
2022-10-29T07:18:04.898Z,16.26
2022-10-29T07:20:33.422Z,16.25
2022-10-29T07:23:01.240Z,16.28
2022-10-29T07:25:28.800Z,16.33
2022-10-29T07:27:56.346Z,16.39
2022-10-29T07:30:22.997Z,16.39
2022-10-29T07:32:49.382Z,16.45
2022-10-29T07:35:15.817Z,16.48
2022-10-29T07:37:42.214Z,16.52
2022-10-29T07:40:09.245Z,16.59
2022-10-29T07:42:35.631Z,16.69
2022-10-29T07:45:02.030Z,16.75
2022-10-29T07:47:28.418Z,16.67
2022-10-29T07:49:54.846Z,16.63
2022-10-29T07:52:21.242Z,16.78
2022-10-29T07:54:47.634Z,16.83
2022-10-29T07:57:14.356Z,16.94
2022-10-29T07:59:40.757Z,16.76
2022-10-29T08:02:10.675Z,16.84
2022-10-29T08:04:37.103Z,16.92
2022-10-29T08:07:03.527Z,16.83
2022-10-29T08:09:29.958Z,17.00
2022-10-29T08:11:56.342Z,16.92
2022-10-29T08:14:22.923Z,17.12
2022-10-29T08:16:49.419Z,17.22
2022-10-29T08:19:15.843Z,17.35
2022-10-29T08:21:42.205Z,17.43
2022-10-29T08:24:09.925Z,17.49
2022-10-29T08:26:36.301Z,17.46
2022-10-29T08:29:02.685Z,17.57
2022-10-29T08:31:35.295Z,17.64
2022-10-29T08:34:02.795Z,17.76
2022-10-29T08:36:31.648Z,17.83
2022-10-29T08:39:00.994Z,17.73
2022-10-29T08:41:58.885Z,17.82
2022-10-29T08:45:02.720Z,17.87
2022-10-29T08:47:41.675Z,17.83
2022-10-29T08:50:22.809Z,18.02
2022-10-29T08:52:58.909Z,18.02
2022-10-29T08:55:38.083Z,18.09
2022-10-29T08:58:20.193Z,18.08
2022-10-29T09:00:52.880Z,18.02
2022-10-29T09:03:19.399Z,18.13
2022-10-29T09:06:00.139Z,18.19
2022-10-29T09:08:55.118Z,18.10
2022-10-29T09:12:16.556Z,18.26
2022-10-29T09:15:18.089Z,18.34
2022-10-29T09:17:50.435Z,18.42
2022-10-29T09:20:43.139Z,18.47
2022-10-29T09:23:24.834Z,18.47
2022-10-29T09:25:56.023Z,18.31
2022-10-29T09:28:45.767Z,18.52
2022-10-29T09:31:47.776Z,18.54
2022-10-29T09:34:30.747Z,18.82
2022-10-29T09:36:58.535Z,18.88
2022-10-29T09:39:39.224Z,18.77
2022-10-29T09:42:33.629Z,18.82
2022-10-29T09:45:04.190Z,18.82
2022-10-29T09:47:37.251Z,18.99
2022-10-29T09:50:11.833Z,18.99
2022-10-29T09:52:41.940Z,18.88
2022-10-29T09:55:18.721Z,18.91
2022-10-29T09:57:46.847Z,18.90
2022-10-29T10:00:26.853Z,19.07
2022-10-29T10:02:59.813Z,19.02
2022-10-29T10:05:34.709Z,19.12
2022-10-29T10:08:12.114Z,19.24
2022-10-29T10:10:49.692Z,19.25
2022-10-29T10:13:17.712Z,19.45
2022-10-29T10:16:06.269Z,19.41
2022-10-29T10:18:32.660Z,19.48
2022-10-29T10:21:11.193Z,19.66
2022-10-29T10:23:45.207Z,19.79
2022-10-29T10:26:33.579Z,19.86
2022-10-29T10:29:26.802Z,19.75
2022-10-29T10:31:55.934Z,19.75
2022-10-29T10:34:24.787Z,19.77
2022-10-29T10:36:55.449Z,19.70
2022-10-29T10:39:26.489Z,19.80
2022-10-29T10:41:54.159Z,19.62
2022-10-29T10:44:22.204Z,19.56
2022-10-29T10:46:51.970Z,19.67
2022-10-29T10:49:28.632Z,19.77
2022-10-29T10:51:57.005Z,19.80
2022-10-29T10:54:37.330Z,19.94
2022-10-29T10:57:12.681Z,19.99
2022-10-29T11:00:21.922Z,19.94
2022-10-29T11:03:10.486Z,20.00
2022-10-29T11:05:58.419Z,20.05
2022-10-29T11:08:31.053Z,20.17
2022-10-29T11:11:06.872Z,20.22
2022-10-29T11:13:34.275Z,20.29
2022-10-29T11:16:16.309Z,20.35
2022-10-29T11:18:53.162Z,20.30
2022-10-29T11:21:25.276Z,20.39
2022-10-29T11:24:06.585Z,20.43
2022-10-29T11:26:40.618Z,20.54
2022-10-29T11:29:29.905Z,20.54
2022-10-29T11:32:07.260Z,20.54
2022-10-29T11:35:03.152Z,20.57
2022-10-29T11:37:37.276Z,20.65
2022-10-29T11:40:15.578Z,20.73
2022-10-29T11:42:42.285Z,20.82
2022-10-29T11:45:13.684Z,20.85
2022-10-29T11:47:57.134Z,20.91
2022-10-29T11:50:55.268Z,21.05
2022-10-29T11:53:29.616Z,21.01
2022-10-29T11:55:58.174Z,21.12
2022-10-29T11:58:40.536Z,21.21
2022-10-29T12:01:14.764Z,21.30
2022-10-29T12:04:04.450Z,21.38
2022-10-29T12:06:43.824Z,21.41
2022-10-29T12:09:45.644Z,21.50
2022-10-29T12:12:33.722Z,21.52
2022-10-29T12:15:15.125Z,21.70
2022-10-29T12:17:57.563Z,21.71
2022-10-29T12:20:54.113Z,21.72
2022-10-29T12:23:44.437Z,21.70
2022-10-29T12:26:32.304Z,21.76
2022-10-29T12:29:36.749Z,21.72
2022-10-29T12:32:20.811Z,21.85
2022-10-29T12:35:02.694Z,21.98
2022-10-29T12:37:55.016Z,22.01
2022-10-29T12:40:25.243Z,22.12
2022-10-29T12:42:54.140Z,22.26
2022-10-29T12:46:19.175Z,22.35
2022-10-29T12:48:58.981Z,22.20
2022-10-29T12:51:40.289Z,22.30
2022-10-29T12:54:29.392Z,22.32
2022-10-29T12:56:57.300Z,22.28
2022-10-29T12:59:23.646Z,22.28
2022-10-29T13:05:05.861Z,22.29
2022-10-29T13:07:47.504Z,22.45
2022-10-29T13:10:23.396Z,22.47
2022-10-29T13:12:55.329Z,22.42
2022-10-29T13:15:24.155Z,22.63
2022-10-29T13:17:54.711Z,22.66
2022-10-29T13:20:21.524Z,22.61
2022-10-29T13:22:59.382Z,22.72
2022-10-29T13:25:34.482Z,22.89
2022-10-29T13:28:21.165Z,22.77
2022-10-29T13:30:53.361Z,22.74
2022-10-29T13:33:28.809Z,22.83
2022-10-29T13:36:01.034Z,22.93
2022-10-29T13:38:51.180Z,22.92
2022-10-29T13:41:39.838Z,22.75
2022-10-29T13:44:26.631Z,22.83
2022-10-29T13:47:19.739Z,22.85
2022-10-29T13:49:48.812Z,22.71
2022-10-29T13:52:20.889Z,22.66
2022-10-29T13:54:56.591Z,22.55
2022-10-29T13:57:50.782Z,22.63
2022-10-29T14:00:20.315Z,22.73
2022-10-29T14:03:02.024Z,22.75
2022-10-29T14:05:34.171Z,22.57
2022-10-29T14:08:06.635Z,22.54
2022-10-29T14:10:42.850Z,22.52
2022-10-29T14:13:42.712Z,22.55
2022-10-29T14:16:11.466Z,22.53
2022-10-29T14:18:49.167Z,22.52
2022-10-29T14:21:30.097Z,22.57
2022-10-29T14:23:59.543Z,22.48
2022-10-29T14:26:27.126Z,22.47
2022-10-29T14:28:53.570Z,22.37
2022-10-29T14:31:29.022Z,22.39
2022-10-29T14:33:59.993Z,22.35
2022-10-29T14:36:29.307Z,22.23
2022-10-29T14:39:02.728Z,22.29
2022-10-29T14:41:31.294Z,22.26
2022-10-29T14:44:18.775Z,22.31
2022-10-29T14:46:58.082Z,22.33
2022-10-29T14:49:25.549Z,22.26
2022-10-29T14:51:58.385Z,22.34
2022-10-29T14:54:32.421Z,22.28
2022-10-29T14:57:03.105Z,22.22
2022-10-29T14:59:30.636Z,21.99
2022-10-29T15:02:32.215Z,22.10
2022-10-29T15:04:56.482Z,22.14
2022-10-29T15:07:23.471Z,22.06
2022-10-29T15:10:01.744Z,22.06
2022-10-29T15:12:36.670Z,21.92
2022-10-29T15:15:18.152Z,21.86
2022-10-29T15:18:00.163Z,21.82
2022-10-29T15:20:39.122Z,21.83
2022-10-29T15:23:11.598Z,21.75
2022-10-29T15:25:39.464Z,21.82
2022-10-29T15:28:10.861Z,21.75
2022-10-29T15:30:38.862Z,21.69
2022-10-29T15:33:12.637Z,21.64
2022-10-29T15:35:48.110Z,21.63
2022-10-29T15:38:32.683Z,21.55
2022-10-29T15:41:07.940Z,21.46
2022-10-29T15:43:47.121Z,21.45
2022-10-29T15:46:22.119Z,21.42
2022-10-29T15:48:48.517Z,21.41
2022-10-29T15:51:15.530Z,21.29
2022-10-29T15:53:42.071Z,21.26
2022-10-29T15:56:13.254Z,21.23
2022-10-29T15:58:40.558Z,21.21
2022-10-29T16:01:07.092Z,21.12
2022-10-29T16:03:39.245Z,21.12
2022-10-29T16:06:07.767Z,21.04
2022-10-29T16:08:47.127Z,21.02
2022-10-29T16:11:16.284Z,20.96
2022-10-29T16:13:42.836Z,20.91
2022-10-29T16:16:15.838Z,20.83
2022-10-29T16:18:42.243Z,20.73
2022-10-29T16:21:08.651Z,20.64
2022-10-29T16:23:38.331Z,20.59
2022-10-29T16:26:04.809Z,20.55
2022-10-29T16:28:31.216Z,20.55
2022-10-29T16:30:59.340Z,20.62
2022-10-29T16:33:26.300Z,20.67
2022-10-29T16:35:52.677Z,20.53
2022-10-29T16:38:19.054Z,20.47
2022-10-29T16:40:45.446Z,20.45
2022-10-29T16:43:11.828Z,20.31
2022-10-29T16:45:38.584Z,20.21
2022-10-29T16:48:05.192Z,20.39
2022-10-29T16:50:33.658Z,20.36
2022-10-29T16:53:01.008Z,20.44
2022-10-29T16:55:28.926Z,20.34
2022-10-29T16:57:56.338Z,20.14
2022-10-29T17:00:23.612Z,20.12
2022-10-29T17:02:50.010Z,20.14
2022-10-29T17:05:16.409Z,20.10
2022-10-29T17:07:42.817Z,19.95
2022-10-29T17:10:09.928Z,19.84
2022-10-29T17:12:36.780Z,19.84
2022-10-29T17:15:03.570Z,19.78
2022-10-29T17:17:30.896Z,19.74
2022-10-29T17:19:57.709Z,19.72
2022-10-29T17:22:24.180Z,19.69
2022-10-29T17:24:50.607Z,19.63
2022-10-29T17:27:17.005Z,19.72
2022-10-29T17:29:43.409Z,19.68
2022-10-29T17:32:10.014Z,19.60
2022-10-29T17:34:36.430Z,19.66
2022-10-29T17:37:03.127Z,19.56
2022-10-29T17:39:29.854Z,19.68
2022-10-29T17:41:56.300Z,19.58
2022-10-29T17:44:22.729Z,19.57
2022-10-29T17:46:49.139Z,19.50
2022-10-29T17:49:15.531Z,19.38
2022-10-29T17:51:42.216Z,19.26
2022-10-29T17:54:08.946Z,19.28
2022-10-29T17:56:35.335Z,19.30
2022-10-29T17:59:01.724Z,19.19
2022-10-29T18:01:28.273Z,19.11
2022-10-29T18:03:54.764Z,19.17
2022-10-29T18:06:21.149Z,18.93
2022-10-29T18:08:47.560Z,18.84
2022-10-29T18:11:22.541Z,18.86
2022-10-29T18:13:49.865Z,18.77
2022-10-29T18:16:21.930Z,18.68
2022-10-29T18:19:00.854Z,18.54
2022-10-29T18:21:29.357Z,18.72
2022-10-29T18:23:55.797Z,18.69
2022-10-29T18:26:36.530Z,18.56
2022-10-29T18:29:07.591Z,18.32
2022-10-29T18:31:34.487Z,18.25
2022-10-29T18:34:05.065Z,18.16
2022-10-29T18:36:32.143Z,18.12
2022-10-29T18:38:59.068Z,18.27
2022-10-29T18:41:25.602Z,18.34
2022-10-29T18:43:52.434Z,18.30
2022-10-29T18:46:19.043Z,18.29
2022-10-29T18:48:47.323Z,18.04
2022-10-29T18:51:16.663Z,18.00
2022-10-29T18:53:43.260Z,17.97
2022-10-29T18:56:12.157Z,17.92
2022-10-29T18:58:39.076Z,18.05
2022-10-29T19:01:12.996Z,18.05
2022-10-29T19:03:40.173Z,17.84
2022-10-29T19:06:09.791Z,17.80
2022-10-29T19:08:37.817Z,17.65
2022-10-29T19:11:06.232Z,17.66
2022-10-29T19:13:32.670Z,17.72
2022-10-29T19:16:12.841Z,17.69
2022-10-29T19:18:40.516Z,17.68
2022-10-29T19:21:13.360Z,17.64
2022-10-29T19:23:40.234Z,17.69
2022-10-29T19:26:09.620Z,17.66
2022-10-29T19:28:36.622Z,17.66
2022-10-29T19:31:15.719Z,17.80
2022-10-29T19:33:42.301Z,17.50
2022-10-29T19:36:09.281Z,17.66
2022-10-29T19:38:35.727Z,17.50
2022-10-29T19:41:02.147Z,17.46
2022-10-29T19:43:29.443Z,17.46
2022-10-29T19:45:56.292Z,17.48
2022-10-29T19:48:22.809Z,17.43
2022-10-29T19:50:53.824Z,17.49
2022-10-29T19:53:20.510Z,17.38
2022-10-29T19:55:50.308Z,17.43
2022-10-29T19:58:21.977Z,17.47
2022-10-29T20:00:48.841Z,17.38
2022-10-29T20:03:15.954Z,17.33
2022-10-29T20:05:43.194Z,17.38
2022-10-29T20:08:13.060Z,17.41
2022-10-29T20:10:42.310Z,17.36
2022-10-29T20:13:08.709Z,17.30
2022-10-29T20:15:35.103Z,17.18
2022-10-29T20:18:01.504Z,17.15
2022-10-29T20:20:27.917Z,17.18
2022-10-29T20:22:54.581Z,17.32
2022-10-29T20:25:23.874Z,17.25
2022-10-29T20:27:50.695Z,17.22
2022-10-29T20:30:17.124Z,17.12
2022-10-29T20:32:43.513Z,16.99
2022-10-29T20:35:09.954Z,17.03
2022-10-29T20:37:39.510Z,17.04
2022-10-29T20:40:06.257Z,17.00
2022-10-29T20:42:32.653Z,17.05
2022-10-29T20:44:59.050Z,17.03
2022-10-29T20:47:25.448Z,16.97
2022-10-29T20:49:51.822Z,17.05
2022-10-29T20:52:18.242Z,16.94
2022-10-29T20:54:44.652Z,16.89
2022-10-29T20:57:11.083Z,16.90
2022-10-29T20:59:37.465Z,16.85
2022-10-29T21:02:03.890Z,16.84
2022-10-29T21:04:30.402Z,16.78
2022-10-29T21:06:56.789Z,16.82
2022-10-29T21:09:23.211Z,16.78
2022-10-29T21:11:54.068Z,16.77
2022-10-29T21:14:20.422Z,16.62
2022-10-29T21:16:46.791Z,16.68
2022-10-29T21:19:13.171Z,16.68
2022-10-29T21:21:40.088Z,16.71
2022-10-29T21:24:06.650Z,16.74
2022-10-29T21:26:33.029Z,16.70
2022-10-29T21:28:59.440Z,16.69
2022-10-29T21:31:25.910Z,16.59
2022-10-29T21:33:53.068Z,16.58
2022-10-29T21:36:20.033Z,16.52
2022-10-29T21:38:46.528Z,16.54
2022-10-29T21:41:12.936Z,16.56
2022-10-29T21:43:39.693Z,16.68
2022-10-29T21:46:06.663Z,16.65
2022-10-29T21:48:33.348Z,16.70
2022-10-29T21:51:01.168Z,16.66
2022-10-29T21:53:27.925Z,16.63
2022-10-29T21:55:58.325Z,16.59
2022-10-29T21:58:25.099Z,16.57
2022-10-29T22:00:51.623Z,16.57
2022-10-29T22:03:18.454Z,16.61
2022-10-29T22:05:44.837Z,16.63
2022-10-29T22:08:11.297Z,16.64
2022-10-29T22:10:37.717Z,16.59
2022-10-29T22:13:04.097Z,16.57
2022-10-29T22:15:30.488Z,16.76
2022-10-29T22:17:56.867Z,16.75
2022-10-29T22:20:23.246Z,16.61
2022-10-29T22:22:49.639Z,16.56
2022-10-29T22:25:16.023Z,16.47
2022-10-29T22:27:42.414Z,16.46
2022-10-29T22:30:09.194Z,16.40
2022-10-29T22:32:35.905Z,16.45
2022-10-29T22:35:02.340Z,16.58
2022-10-29T22:37:28.713Z,16.59
2022-10-29T22:39:55.102Z,16.54
2022-10-29T22:42:21.557Z,16.61
2022-10-29T22:44:47.954Z,16.62
2022-10-29T22:47:14.333Z,16.60
2022-10-29T22:49:40.737Z,16.56
2022-10-29T22:52:07.129Z,16.54
2022-10-29T22:54:33.528Z,16.48
2022-10-29T22:56:59.903Z,16.55
2022-10-29T22:59:26.300Z,16.53
2022-10-29T23:01:52.781Z,16.49
2022-10-29T23:04:19.243Z,16.51
2022-10-29T23:06:47.668Z,16.47
2022-10-29T23:09:14.112Z,16.48
2022-10-29T23:11:40.546Z,16.49
2022-10-29T23:14:07.132Z,16.38
2022-10-29T23:16:35.012Z,16.45
2022-10-29T23:19:03.499Z,16.44
2022-10-29T23:21:30.636Z,16.34
2022-10-29T23:23:57.774Z,16.34
2022-10-29T23:26:25.424Z,16.33
2022-10-29T23:28:52.122Z,16.31
2022-10-29T23:31:20.715Z,16.39
2022-10-29T23:33:52.464Z,16.26
2022-10-29T23:36:20.350Z,16.18
2022-10-29T23:38:46.755Z,16.17
2022-10-29T23:41:13.487Z,16.18
2022-10-29T23:43:40.933Z,16.12
2022-10-29T23:46:07.342Z,16.02
2022-10-29T23:48:33.737Z,15.94
2022-10-29T23:51:00.127Z,15.91
2022-10-29T23:53:26.545Z,15.98
2022-10-29T23:55:52.912Z,16.01
2022-10-29T23:58:19.352Z,16.03
